Westchester, Indiana
Current Conditions -  °F | °C
As of 4:53 PM on Thursday 23 Oct 2014 (Local Time) from KMIE Reporting Station
Clear Clear  
Wind Chill: 57°   Ceiling: Unl
Heat Index: 57°   Visibility: 10mi
Dew Point: 39°   Wind: 5mph
Humidity: 51%   Direction: 280°W
Pressure: 30.14"   Gusts: NA
Location:  40.4312°N, 85.0058°W
Report Text: KMIE 232053Z 28004KT 10SM CLR 14/04 A3014 RMK AO2 SLP207 T01390039 56018
Loading
Personal Weather Stations






























Interactive Weather Map
Tropical Storm Tracking
New forecast layout! Learn more

10-Day Weather Forecast

Advertisements
Track Severe Weather on mobile